createdAt,value
2018-12-29T00:00:53.665Z,4.20
2018-12-29T00:03:21.012Z,4.20
2018-12-29T00:05:48.541Z,4.20
2018-12-29T00:08:16.033Z,4.20
2018-12-29T00:10:43.407Z,4.20
2018-12-29T00:13:10.860Z,4.20
2018-12-29T00:15:38.323Z,4.20
2018-12-29T00:18:05.786Z,4.20
2018-12-29T00:20:33.221Z,4.20
2018-12-29T00:23:00.684Z,4.20
2018-12-29T00:25:28.136Z,4.20
2018-12-29T00:27:55.575Z,4.20
2018-12-29T00:30:23.021Z,4.20
2018-12-29T00:32:50.463Z,4.20
2018-12-29T00:35:17.798Z,4.20
2018-12-29T00:37:45.267Z,4.10
2018-12-29T00:40:12.683Z,4.20
2018-12-29T00:42:40.068Z,4.20
2018-12-29T00:45:07.466Z,4.20
2018-12-29T00:47:34.808Z,4.20
2018-12-29T00:50:02.305Z,4.10
2018-12-29T00:52:29.744Z,4.20
2018-12-29T00:54:57.296Z,4.20
2018-12-29T00:57:24.614Z,4.20
2018-12-29T00:59:51.954Z,4.20
2018-12-29T01:02:19.417Z,4.30
2018-12-29T01:04:46.841Z,4.20
2018-12-29T01:07:14.301Z,4.20
2018-12-29T01:09:41.660Z,4.30
2018-12-29T01:12:08.990Z,4.20
2018-12-29T01:14:36.436Z,4.30
2018-12-29T01:17:03.842Z,4.30
2018-12-29T01:19:31.312Z,4.30
2018-12-29T01:22:00.532Z,4.30
2018-12-29T01:24:27.974Z,4.30
2018-12-29T01:26:55.430Z,4.30
2018-12-29T01:29:22.897Z,4.30
2018-12-29T01:31:50.232Z,4.30
2018-12-29T01:34:17.701Z,4.30
2018-12-29T01:36:45.045Z,4.40
2018-12-29T01:39:12.522Z,4.40
2018-12-29T01:41:39.858Z,4.40
2018-12-29T01:44:07.353Z,4.40
2018-12-29T01:46:34.811Z,4.40
2018-12-29T01:49:02.143Z,4.40
2018-12-29T01:51:29.620Z,4.40
2018-12-29T01:53:57.059Z,4.40
2018-12-29T01:56:24.758Z,4.40
2018-12-29T01:58:52.172Z,4.40
2018-12-29T02:01:19.622Z,4.50
2018-12-29T02:03:47.102Z,4.50
2018-12-29T02:06:14.543Z,4.50
2018-12-29T02:08:41.993Z,4.50
2018-12-29T02:11:09.451Z,4.50
2018-12-29T02:13:36.845Z,4.50
2018-12-29T02:16:04.288Z,4.50
2018-12-29T02:18:31.634Z,4.50
2018-12-29T02:20:59.102Z,4.50
2018-12-29T02:23:26.548Z,4.50
2018-12-29T02:25:54.301Z,4.50
2018-12-29T02:28:21.754Z,4.50
2018-12-29T02:30:49.242Z,4.50
2018-12-29T02:33:16.697Z,4.60
2018-12-29T02:35:44.156Z,4.60
2018-12-29T02:38:11.617Z,4.60
2018-12-29T02:40:39.081Z,4.60
2018-12-29T02:43:06.627Z,4.60
2018-12-29T02:45:34.013Z,4.60
2018-12-29T02:48:01.482Z,4.60
2018-12-29T02:50:28.863Z,4.60
2018-12-29T02:52:56.318Z,4.60
2018-12-29T02:55:23.765Z,4.60
2018-12-29T02:57:51.246Z,4.60
2018-12-29T03:00:18.665Z,4.60
2018-12-29T03:05:51.340Z,4.60
2018-12-29T03:08:18.809Z,4.70
2018-12-29T03:10:46.393Z,4.60
2018-12-29T03:13:13.844Z,4.60
2018-12-29T03:18:36.652Z,4.60
2018-12-29T03:21:04.106Z,4.60
2018-12-29T03:23:31.594Z,4.60
2018-12-29T03:25:58.946Z,4.60
2018-12-29T03:28:26.312Z,4.60
2018-12-29T03:30:53.794Z,4.60
2018-12-29T03:33:21.263Z,4.60
2018-12-29T03:35:48.742Z,4.60
2018-12-29T03:38:16.171Z,4.60
2018-12-29T03:40:43.664Z,4.60
2018-12-29T03:43:11.120Z,4.60
2018-12-29T03:45:38.596Z,4.60
2018-12-29T03:48:06.060Z,4.60
2018-12-29T03:50:33.555Z,4.60
2018-12-29T03:53:01.020Z,4.60
2018-12-29T03:55:28.492Z,4.60
2018-12-29T03:57:55.889Z,4.60
2018-12-29T04:00:23.359Z,4.70
2018-12-29T04:02:50.779Z,4.60
2018-12-29T04:05:18.303Z,4.60
2018-12-29T04:07:45.745Z,4.70
2018-12-29T04:10:15.479Z,4.70
2018-12-29T04:12:46.534Z,4.70
2018-12-29T04:15:13.920Z,4.70
2018-12-29T04:17:41.284Z,4.70
2018-12-29T04:20:08.812Z,4.70
2018-12-29T04:22:36.157Z,4.70
2018-12-29T04:25:03.709Z,4.70
2018-12-29T04:27:31.188Z,4.80
2018-12-29T04:29:58.651Z,4.80
2018-12-29T04:32:26.109Z,4.80
2018-12-29T04:34:53.661Z,4.90
2018-12-29T04:37:21.113Z,4.90
2018-12-29T04:39:48.579Z,4.90
2018-12-29T04:42:16.059Z,4.90
2018-12-29T04:44:43.406Z,4.90
2018-12-29T04:47:10.835Z,4.90
2018-12-29T04:49:38.277Z,4.90
2018-12-29T04:52:05.636Z,4.90
2018-12-29T04:54:33.048Z,4.90
2018-12-29T04:57:00.528Z,4.90
2018-12-29T04:59:28.061Z,4.90
2018-12-29T05:01:55.540Z,4.90
2018-12-29T05:04:22.893Z,4.90
2018-12-29T05:06:50.257Z,4.80
2018-12-29T05:09:17.684Z,4.80
2018-12-29T05:11:45.029Z,4.80
2018-12-29T05:14:12.365Z,4.80
2018-12-29T05:16:39.740Z,4.80
2018-12-29T05:19:07.113Z,4.80
2018-12-29T05:21:34.482Z,4.80
2018-12-29T05:24:01.845Z,4.80
2018-12-29T05:26:29.211Z,4.80
2018-12-29T05:28:56.657Z,4.90
2018-12-29T05:31:24.327Z,4.80
2018-12-29T05:33:51.676Z,4.80
2018-12-29T05:36:19.130Z,4.80
2018-12-29T05:38:46.607Z,4.80
2018-12-29T05:41:14.050Z,4.80
2018-12-29T05:43:41.389Z,4.80
2018-12-29T05:46:08.745Z,4.90
2018-12-29T05:48:36.167Z,4.90
2018-12-29T05:51:03.608Z,4.90
2018-12-29T05:53:31.068Z,4.80
2018-12-29T05:55:58.535Z,4.90
2018-12-29T05:58:25.970Z,4.90
2018-12-29T06:00:53.435Z,4.80
2018-12-29T06:03:20.875Z,4.90
2018-12-29T06:05:48.247Z,4.80
2018-12-29T06:08:15.705Z,4.80
2018-12-29T06:10:43.156Z,4.80
2018-12-29T06:13:10.668Z,4.80
2018-12-29T06:15:38.173Z,4.80
2018-12-29T06:18:06.777Z,4.80
2018-12-29T06:20:34.387Z,4.80
2018-12-29T06:23:01.762Z,4.80
2018-12-29T06:25:29.201Z,4.90
2018-12-29T06:27:56.602Z,4.90
2018-12-29T06:30:24.053Z,4.90
2018-12-29T06:32:51.532Z,4.90
2018-12-29T06:35:19.025Z,4.90
2018-12-29T06:37:46.467Z,4.90
2018-12-29T06:40:13.929Z,4.90
2018-12-29T06:42:41.385Z,4.90
2018-12-29T06:45:08.751Z,4.90
2018-12-29T06:47:36.226Z,5.00
2018-12-29T06:50:03.838Z,5.00
2018-12-29T06:52:31.238Z,5.00
2018-12-29T06:54:58.728Z,5.00
2018-12-29T06:57:26.191Z,5.00
2018-12-29T06:59:53.657Z,5.00
2018-12-29T07:02:21.108Z,5.00
2018-12-29T07:04:48.450Z,4.90
2018-12-29T07:07:15.815Z,4.90
2018-12-29T07:09:43.468Z,4.90
2018-12-29T07:12:10.913Z,4.90
2018-12-29T07:14:38.394Z,4.90
2018-12-29T07:17:05.885Z,4.90
2018-12-29T07:19:33.310Z,4.90
2018-12-29T07:22:00.960Z,4.90
2018-12-29T07:24:28.448Z,4.80
2018-12-29T07:26:55.879Z,4.80
2018-12-29T07:29:23.374Z,4.80
2018-12-29T07:31:50.700Z,4.80
2018-12-29T07:34:18.056Z,4.70
2018-12-29T07:36:45.500Z,4.80
2018-12-29T07:39:12.889Z,4.80
2018-12-29T07:41:40.618Z,4.70
2018-12-29T07:44:08.088Z,4.70
2018-12-29T07:46:35.532Z,4.80
2018-12-29T07:49:02.986Z,4.80
2018-12-29T07:51:31.272Z,4.70
2018-12-29T07:53:58.656Z,4.70
2018-12-29T07:56:26.122Z,4.70
2018-12-29T07:58:53.600Z,4.70
2018-12-29T08:01:20.940Z,4.70
2018-12-29T08:03:48.336Z,4.70
2018-12-29T08:06:15.866Z,4.70
2018-12-29T08:08:43.348Z,4.70
2018-12-29T08:11:10.820Z,4.60
2018-12-29T08:13:38.271Z,4.70
2018-12-29T08:16:05.731Z,4.60
2018-12-29T08:18:33.157Z,4.60
2018-12-29T08:21:00.506Z,4.60
2018-12-29T08:23:28.014Z,4.60
2018-12-29T08:25:55.502Z,4.60
2018-12-29T08:28:22.886Z,4.60
2018-12-29T08:30:50.400Z,4.60
2018-12-29T08:33:17.866Z,4.60
2018-12-29T08:35:45.325Z,4.50
2018-12-29T08:38:12.748Z,4.60
2018-12-29T08:40:40.199Z,4.50
2018-12-29T08:43:07.674Z,4.60
2018-12-29T08:45:35.120Z,4.60
2018-12-29T08:48:02.489Z,4.60
2018-12-29T08:50:29.946Z,4.60
2018-12-29T08:52:57.382Z,4.70
2018-12-29T08:55:24.839Z,4.80
2018-12-29T08:57:52.186Z,4.70
2018-12-29T09:00:19.611Z,4.80
2018-12-29T09:02:46.976Z,4.80
2018-12-29T09:05:14.356Z,4.80
2018-12-29T09:07:41.822Z,4.90
2018-12-29T09:10:09.225Z,4.90
2018-12-29T09:12:36.680Z,4.90
2018-12-29T09:15:04.456Z,5.00
2018-12-29T09:17:31.857Z,5.00
2018-12-29T09:19:59.326Z,5.10
2018-12-29T09:22:26.869Z,5.10
2018-12-29T09:24:54.340Z,5.10
2018-12-29T09:27:21.833Z,5.20
2018-12-29T09:29:49.189Z,5.20
2018-12-29T09:32:16.551Z,5.30
2018-12-29T09:34:43.986Z,5.30
2018-12-29T09:37:11.515Z,5.30
2018-12-29T09:39:38.931Z,5.30
2018-12-29T09:42:06.395Z,5.30
2018-12-29T09:44:33.863Z,5.40
2018-12-29T09:47:01.332Z,5.40
2018-12-29T09:49:28.819Z,5.40
2018-12-29T09:51:57.268Z,5.40
2018-12-29T09:54:24.947Z,5.50
2018-12-29T09:56:52.453Z,5.50
2018-12-29T09:59:19.936Z,5.50
2018-12-29T10:01:47.473Z,5.50
2018-12-29T10:04:15.252Z,5.50
2018-12-29T10:06:42.717Z,5.50
2018-12-29T10:09:10.314Z,5.50
2018-12-29T10:11:37.797Z,5.50
2018-12-29T10:14:05.256Z,5.50
2018-12-29T10:16:32.811Z,5.50
2018-12-29T10:19:04.909Z,5.50
2018-12-29T10:21:32.414Z,5.50
2018-12-29T10:23:59.907Z,5.50
2018-12-29T10:26:27.391Z,5.50
2018-12-29T10:28:54.913Z,5.50
2018-12-29T10:31:22.441Z,5.50
2018-12-29T10:33:49.937Z,5.60
2018-12-29T10:36:17.983Z,5.60
2018-12-29T10:38:45.492Z,5.60
2018-12-29T10:41:12.873Z,5.70
2018-12-29T10:43:40.493Z,5.70
2018-12-29T10:46:07.990Z,5.70
2018-12-29T10:48:35.425Z,5.80
2018-12-29T10:53:47.528Z,5.80
2018-12-29T10:56:16.085Z,5.90
2018-12-29T10:58:43.569Z,5.90
2018-12-29T11:01:11.137Z,5.90
2018-12-29T11:03:38.608Z,6.00
2018-12-29T11:06:06.100Z,6.00
2018-12-29T11:08:33.653Z,6.00
2018-12-29T11:11:01.189Z,6.00
2018-12-29T11:13:28.665Z,6.00
2018-12-29T11:15:56.138Z,6.00
2018-12-29T11:18:23.630Z,6.10
2018-12-29T11:20:51.137Z,6.10
2018-12-29T11:23:18.560Z,6.10
2018-12-29T11:25:46.071Z,6.10
2018-12-29T11:28:13.880Z,6.20
2018-12-29T11:30:41.244Z,6.20
2018-12-29T11:33:08.681Z,6.20
2018-12-29T11:35:36.160Z,6.20
2018-12-29T11:38:03.626Z,6.30
2018-12-29T11:40:31.102Z,6.30
2018-12-29T11:42:58.591Z,6.30
2018-12-29T11:45:26.095Z,6.40
2018-12-29T11:47:53.545Z,6.40
2018-12-29T11:50:21.036Z,6.40
2018-12-29T11:52:48.573Z,6.40
2018-12-29T11:55:16.015Z,6.50
2018-12-29T11:57:43.551Z,6.50
2018-12-29T12:00:11.079Z,6.50
2018-12-29T12:02:38.543Z,6.50
2018-12-29T12:05:06.061Z,6.50
2018-12-29T12:07:33.605Z,6.50
2018-12-29T12:10:01.069Z,6.40
2018-12-29T12:12:28.635Z,6.50
2018-12-29T12:14:56.073Z,6.50
2018-12-29T12:17:23.600Z,6.50
2018-12-29T12:19:51.080Z,6.50
2018-12-29T12:22:18.893Z,6.50
2018-12-29T12:24:46.425Z,6.50
2018-12-29T12:27:13.921Z,6.50
2018-12-29T12:29:41.811Z,6.50
2018-12-29T12:32:09.303Z,6.50
2018-12-29T12:34:36.824Z,6.50
2018-12-29T12:37:04.323Z,6.60
2018-12-29T12:39:31.775Z,6.50
2018-12-29T12:41:59.273Z,6.50
2018-12-29T12:44:26.737Z,6.50
2018-12-29T12:46:54.290Z,6.60
2018-12-29T12:49:22.066Z,6.60
2018-12-29T12:51:49.518Z,6.60
2018-12-29T12:54:16.943Z,6.60
2018-12-29T12:56:44.434Z,6.60
2018-12-29T12:59:12.281Z,6.60
2018-12-29T13:01:40.023Z,6.60
2018-12-29T13:04:07.490Z,6.60
2018-12-29T13:06:34.948Z,6.60
2018-12-29T13:09:03.388Z,6.60
2018-12-29T13:11:30.884Z,6.70
2018-12-29T13:13:58.322Z,6.70
2018-12-29T13:16:25.803Z,6.70
2018-12-29T13:18:53.373Z,6.70
2018-12-29T13:21:20.862Z,6.80
2018-12-29T13:23:48.625Z,6.80
2018-12-29T13:26:16.111Z,6.80
2018-12-29T13:28:43.603Z,6.80
2018-12-29T13:31:11.077Z,6.90
2018-12-29T13:33:38.543Z,6.90
2018-12-29T13:36:06.105Z,7.00
2018-12-29T13:38:33.626Z,7.00
2018-12-29T13:41:01.159Z,7.00
2018-12-29T13:43:28.673Z,7.10
2018-12-29T13:45:56.154Z,7.10
2018-12-29T13:48:23.631Z,7.10
2018-12-29T13:50:51.378Z,7.10
2018-12-29T13:53:18.831Z,7.10
2018-12-29T13:55:46.279Z,7.10
2018-12-29T13:58:13.735Z,7.20
2018-12-29T14:00:41.190Z,7.20
2018-12-29T14:03:10.290Z,7.20
2018-12-29T14:05:37.713Z,7.30
2018-12-29T14:08:05.203Z,7.30
2018-12-29T14:10:32.661Z,7.30
2018-12-29T14:13:00.130Z,7.30
2018-12-29T14:15:27.570Z,7.30
2018-12-29T14:17:55.005Z,7.30
2018-12-29T14:20:22.474Z,7.40
2018-12-29T14:22:49.939Z,7.40
2018-12-29T14:25:17.359Z,7.40
2018-12-29T14:27:44.877Z,7.40
2018-12-29T14:30:12.383Z,7.40
2018-12-29T14:32:39.841Z,7.40
2018-12-29T14:35:07.300Z,7.40
2018-12-29T14:37:34.811Z,7.40
2018-12-29T14:40:02.329Z,7.50
2018-12-29T14:42:30.257Z,7.50
2018-12-29T14:44:57.771Z,7.50
2018-12-29T14:47:25.273Z,7.50
2018-12-29T14:49:52.873Z,7.60
2018-12-29T14:52:20.352Z,7.60
2018-12-29T14:54:47.851Z,7.60
2018-12-29T14:57:15.281Z,7.60
2018-12-29T14:59:42.746Z,7.60
2018-12-29T15:02:10.198Z,7.60
2018-12-29T15:04:37.656Z,7.70
2018-12-29T15:07:05.156Z,7.70
2018-12-29T15:09:32.632Z,7.70
2018-12-29T15:12:00.086Z,7.70
2018-12-29T15:14:27.544Z,7.80
2018-12-29T15:16:54.977Z,7.80
2018-12-29T15:19:22.432Z,7.80
2018-12-29T15:21:49.889Z,7.80
2018-12-29T15:24:17.651Z,7.80
2018-12-29T15:26:45.082Z,7.80
2018-12-29T15:29:12.735Z,7.80
2018-12-29T15:31:40.197Z,7.80
2018-12-29T15:34:07.656Z,7.90
2018-12-29T15:36:35.765Z,7.90
2018-12-29T15:39:05.472Z,7.90
2018-12-29T15:41:32.925Z,7.90
2018-12-29T15:44:00.692Z,7.90
2018-12-29T15:46:28.154Z,7.90
2018-12-29T15:48:55.596Z,7.90
2018-12-29T15:51:23.404Z,7.90
2018-12-29T15:53:50.850Z,7.90
2018-12-29T15:56:18.584Z,7.90
2018-12-29T15:58:46.025Z,7.90
2018-12-29T16:01:13.704Z,7.90
2018-12-29T16:03:41.203Z,7.90
2018-12-29T16:06:08.964Z,7.90
2018-12-29T16:08:36.444Z,7.90
2018-12-29T16:11:03.902Z,7.90
2018-12-29T16:13:31.311Z,7.90
2018-12-29T16:15:58.784Z,7.90
2018-12-29T16:18:26.540Z,7.90
2018-12-29T16:20:55.388Z,7.90
2018-12-29T16:23:22.989Z,7.90
2018-12-29T16:25:50.873Z,7.90
2018-12-29T16:28:18.345Z,7.90
2018-12-29T16:30:45.799Z,7.90
2018-12-29T16:33:13.280Z,7.90
2018-12-29T16:35:40.738Z,7.90
2018-12-29T16:38:08.484Z,7.90
2018-12-29T16:40:35.948Z,8.00
2018-12-29T16:43:03.425Z,8.00
2018-12-29T16:45:34.368Z,8.00
2018-12-29T16:48:01.968Z,8.00
2018-12-29T16:50:29.662Z,8.10
2018-12-29T16:52:59.365Z,8.10
2018-12-29T16:55:29.923Z,8.10
2018-12-29T16:57:59.654Z,8.20
2018-12-29T17:00:32.533Z,8.20
2018-12-29T17:03:00.989Z,8.20
2018-12-29T17:05:28.433Z,8.20
2018-12-29T17:07:59.966Z,8.30
2018-12-29T17:10:27.436Z,8.30
2018-12-29T17:12:58.797Z,8.40
2018-12-29T17:15:28.219Z,8.40
2018-12-29T17:17:55.742Z,8.50
2018-12-29T17:20:23.347Z,8.50
2018-12-29T17:22:53.082Z,8.50
2018-12-29T17:25:23.461Z,8.50
2018-12-29T17:27:50.929Z,8.50
2018-12-29T17:30:18.523Z,8.60
2018-12-29T17:32:49.195Z,8.60
2018-12-29T17:35:16.695Z,8.70
2018-12-29T17:37:44.287Z,8.70
2018-12-29T17:40:11.763Z,8.70
2018-12-29T17:42:39.216Z,8.80
2018-12-29T17:45:07.017Z,8.80
2018-12-29T17:47:34.433Z,8.90
2018-12-29T17:50:01.980Z,9.00
2018-12-29T17:52:29.389Z,9.00
2018-12-29T17:54:56.850Z,9.10
2018-12-29T17:57:24.296Z,9.10
2018-12-29T17:59:51.762Z,9.20
2018-12-29T18:02:19.230Z,9.20
2018-12-29T18:04:46.685Z,9.20
2018-12-29T18:07:14.497Z,9.30
2018-12-29T18:09:42.129Z,9.30
2018-12-29T18:12:09.702Z,9.30
2018-12-29T18:14:37.144Z,9.30
2018-12-29T18:17:04.559Z,9.30
2018-12-29T18:19:32.060Z,9.40
2018-12-29T18:21:59.840Z,9.40
2018-12-29T18:24:27.280Z,9.40
2018-12-29T18:26:54.734Z,9.40
2018-12-29T18:29:22.205Z,9.40
2018-12-29T18:31:50.000Z,9.40
2018-12-29T18:34:17.409Z,9.40
2018-12-29T18:36:44.881Z,9.40
2018-12-29T18:39:12.318Z,9.40
2018-12-29T18:41:39.851Z,9.40
2018-12-29T18:44:07.470Z,9.40
2018-12-29T18:46:34.949Z,9.40
2018-12-29T18:49:02.401Z,9.40
2018-12-29T18:51:29.827Z,9.40
2018-12-29T18:53:57.309Z,9.40
2018-12-29T18:56:25.067Z,9.40
2018-12-29T18:58:52.521Z,9.40
2018-12-29T19:01:19.985Z,9.40
2018-12-29T19:03:47.424Z,9.40
2018-12-29T19:06:14.983Z,9.40
2018-12-29T19:08:42.770Z,9.30
2018-12-29T19:11:10.584Z,9.30
2018-12-29T19:13:38.134Z,9.30
2018-12-29T19:16:05.931Z,9.40
2018-12-29T19:18:33.379Z,9.40
2018-12-29T19:21:00.856Z,9.40
2018-12-29T19:23:28.639Z,9.40
2018-12-29T19:25:56.509Z,9.40
2018-12-29T19:28:24.267Z,9.40
2018-12-29T19:30:51.694Z,9.40
2018-12-29T19:33:19.614Z,9.40
2018-12-29T19:35:47.506Z,9.30
2018-12-29T19:38:15.146Z,9.30
2018-12-29T19:40:43.092Z,9.40
2018-12-29T19:43:10.930Z,9.30
2018-12-29T19:45:38.373Z,9.30
2018-12-29T19:48:05.867Z,9.30
2018-12-29T19:50:33.356Z,9.30
2018-12-29T19:53:00.801Z,9.40
2018-12-29T19:55:28.255Z,9.40
2018-12-29T19:57:55.771Z,9.40
2018-12-29T20:00:23.578Z,9.40
2018-12-29T20:02:51.429Z,9.40
2018-12-29T20:05:19.260Z,9.40
2018-12-29T20:07:46.719Z,9.40
2018-12-29T20:10:14.194Z,9.40
2018-12-29T20:12:41.654Z,9.40
2018-12-29T20:15:08.999Z,9.40
2018-12-29T20:17:36.769Z,9.40
2018-12-29T20:20:04.542Z,9.30
2018-12-29T20:22:31.995Z,9.30
2018-12-29T20:24:59.445Z,9.30
2018-12-29T20:27:26.897Z,9.30
2018-12-29T20:29:54.365Z,9.30
2018-12-29T20:32:21.819Z,9.30
2018-12-29T20:34:49.279Z,9.20
2018-12-29T20:37:16.771Z,9.20
2018-12-29T20:39:44.545Z,9.20
2018-12-29T20:42:12.075Z,9.10
2018-12-29T20:44:39.798Z,9.10
2018-12-29T20:47:07.245Z,9.10
2018-12-29T20:49:34.751Z,9.10
2018-12-29T20:52:02.228Z,9.00
2018-12-29T20:54:29.721Z,9.00
2018-12-29T20:56:57.255Z,8.90
2018-12-29T20:59:24.709Z,8.80
2018-12-29T21:01:52.206Z,8.70
2018-12-29T21:04:19.693Z,8.70
2018-12-29T21:06:47.145Z,8.60
2018-12-29T21:09:14.881Z,8.60
2018-12-29T21:11:42.467Z,8.50
2018-12-29T21:14:09.939Z,8.50
2018-12-29T21:16:37.377Z,8.50
2018-12-29T21:19:04.818Z,8.50
2018-12-29T21:21:32.269Z,8.40
2018-12-29T21:23:59.730Z,8.40
2018-12-29T21:26:27.159Z,8.40
2018-12-29T21:28:54.629Z,8.40
2018-12-29T21:31:22.096Z,8.40
2018-12-29T21:33:49.577Z,8.40
2018-12-29T21:36:17.186Z,8.40
2018-12-29T21:38:44.641Z,8.40
2018-12-29T21:41:13.495Z,8.40
2018-12-29T21:43:40.947Z,8.40
2018-12-29T21:46:08.414Z,8.40
2018-12-29T21:48:35.842Z,8.40
2018-12-29T21:51:03.333Z,8.40
2018-12-29T21:53:30.785Z,8.30
2018-12-29T21:55:58.244Z,8.30
2018-12-29T21:58:25.710Z,8.30
2018-12-29T22:00:53.533Z,8.30
2018-12-29T22:03:21.000Z,8.30
2018-12-29T22:05:48.444Z,8.30
2018-12-29T22:08:15.902Z,8.30
2018-12-29T22:10:43.347Z,8.30
2018-12-29T22:13:10.827Z,8.20
2018-12-29T22:15:38.574Z,8.30
2018-12-29T22:18:06.054Z,8.20
2018-12-29T22:20:33.642Z,8.20
2018-12-29T22:23:01.062Z,8.20
2018-12-29T22:25:28.513Z,8.10
2018-12-29T22:28:15.466Z,8.10
2018-12-29T22:30:42.907Z,8.10
2018-12-29T22:33:10.354Z,8.10
2018-12-29T22:35:37.880Z,8.10
2018-12-29T22:38:05.347Z,8.10
2018-12-29T22:40:32.837Z,8.10
2018-12-29T22:43:00.328Z,8.10
2018-12-29T22:45:27.821Z,8.00
2018-12-29T22:47:55.383Z,8.00
2018-12-29T22:50:22.823Z,8.00
2018-12-29T22:52:50.426Z,8.00
2018-12-29T22:55:18.262Z,8.00
2018-12-29T22:57:45.725Z,8.00
2018-12-29T23:00:20.918Z,8.00
2018-12-29T23:02:48.315Z,8.00
2018-12-29T23:05:16.046Z,8.00
2018-12-29T23:07:43.482Z,8.00
2018-12-29T23:10:10.923Z,8.00
2018-12-29T23:12:38.397Z,8.00
2018-12-29T23:15:05.933Z,7.90
2018-12-29T23:17:33.405Z,8.00
2018-12-29T23:20:00.846Z,7.90
2018-12-29T23:22:28.700Z,7.80
2018-12-29T23:24:56.124Z,7.80
2018-12-29T23:27:23.573Z,7.90
2018-12-29T23:29:51.016Z,7.80
2018-12-29T23:32:18.457Z,7.80
2018-12-29T23:34:46.151Z,7.70
2018-12-29T23:37:13.587Z,7.70
2018-12-29T23:39:41.037Z,7.70
2018-12-29T23:42:08.537Z,7.60
2018-12-29T23:44:36.085Z,7.50
2018-12-29T23:47:03.501Z,7.40
2018-12-29T23:49:31.259Z,7.30
2018-12-29T23:51:59.114Z,7.20
2018-12-29T23:54:26.558Z,7.20
2018-12-29T23:56:54.410Z,7.10
2018-12-29T23:59:21.859Z,7.00
